CheckWX is a tool to help pilots better visualize weather data.  It is not intended as a substitute for an official pre-flight weather briefing.

02:37:06 UTC

KBAC METAR
Barnes County Municipal Airport
Valley City, North Dakota, USA
Current

22 mins ago

KBAC 230215Z AUTO 14003KT 10SM M02/M02 A3019 RMK AO2
Observed
Mar-23 @ 02:15 UTC
Wind
  • 140° at 3 KTS
Visibility
10 SM
Temperature
-2°C / 28°F
Dewpoint
-2°C / 28°F
Humidity
100%
Altimeter
30.19" Hg
Pressure
1022.32 hPa
Previous

42 mins ago

KBAC 230155Z AUTO 17005KT 10SM M03/M03 A3019 RMK AO2
Observed
Mar-23 @ 01:55 UTC
Wind
  • 170° at 5 KTS
Visibility
10 SM
Temperature
-3°C / 27°F
Dewpoint
-3°C / 27°F
Humidity
100%
Altimeter
30.19" Hg
Pressure
1022.32 hPa
Previous

1 hour ago

KBAC 230135Z AUTO 20003KT 10SM M02/M02 A3019 RMK AO2
Observed
Mar-23 @ 01:35 UTC
Wind
  • 200° at 3 KTS
Visibility
10 SM
Temperature
-2°C / 28°F
Dewpoint
-2°C / 28°F
Humidity
100%
Altimeter
30.19" Hg
Pressure
1022.32 hPa